createdAt,value
2022-11-15T00:00:19.411Z,94301.19
2022-11-15T00:01:17.996Z,94297.13
2022-11-15T00:02:14.578Z,94300.09
2022-11-15T00:03:11.078Z,94295.34
2022-11-15T00:04:07.909Z,94301.59
2022-11-15T00:05:04.535Z,94300.19
2022-11-15T00:06:06.861Z,94299.47
2022-11-15T00:07:03.339Z,94294.34
2022-11-15T00:07:59.908Z,94295.84
2022-11-15T00:08:58.766Z,94305.31
2022-11-15T00:09:55.202Z,94296.19
2022-11-15T00:10:55.113Z,94154.78
2022-11-15T00:11:52.416Z,94290.22
2022-11-15T00:12:48.919Z,94288.38
2022-11-15T00:13:45.396Z,94297.47
2022-11-15T00:14:41.912Z,94286.38
2022-11-15T00:15:38.801Z,94292.13
2022-11-15T00:16:35.246Z,94291.84
2022-11-15T00:17:31.767Z,94294.19
2022-11-15T00:18:28.619Z,94293.41
2022-11-15T00:19:25.116Z,94292.06
2022-11-15T00:20:21.612Z,94288.34
2022-11-15T00:21:18.476Z,94293.34
2022-11-15T00:22:14.923Z,94295.53
2022-11-15T00:23:11.775Z,94292.13
2022-11-15T00:24:08.289Z,94296.69
2022-11-15T00:25:04.962Z,94294.19
2022-11-15T00:26:01.592Z,94300.81
2022-11-15T00:26:58.042Z,94301.72
2022-11-15T00:27:57.960Z,94300.09
2022-11-15T00:28:54.623Z,94299.94
2022-11-15T00:29:51.056Z,94297.53
2022-11-15T00:30:47.527Z,94297.13
2022-11-15T00:31:43.993Z,94298.69
2022-11-15T00:32:40.501Z,94291.97
2022-11-15T00:33:36.981Z,94286.06
2022-11-15T00:34:33.559Z,94286.66
2022-11-15T00:35:32.125Z,94288.41
2022-11-15T00:36:28.603Z,94283.66
2022-11-15T00:37:25.132Z,94284.22
2022-11-15T00:38:21.609Z,94278.88
2022-11-15T00:39:18.062Z,94280.66
2022-11-15T00:40:15.010Z,94278.22
2022-11-15T00:41:11.570Z,94275.97
2022-11-15T00:42:08.132Z,94270.81
2022-11-15T00:43:04.563Z,94276.16
2022-11-15T00:44:01.078Z,94271.72
2022-11-15T00:44:57.573Z,94276.63
2022-11-15T00:45:54.296Z,94278.84
2022-11-15T00:46:50.747Z,94276.03
2022-11-15T00:47:47.617Z,94279.94
2022-11-15T00:48:44.128Z,94278.06
2022-11-15T00:49:42.000Z,94285.38
2022-11-15T00:50:38.485Z,94283.16
2022-11-15T00:51:35.029Z,94285.28
2022-11-15T00:52:31.508Z,94276.28
2022-11-15T00:53:28.166Z,94277.50
2022-11-15T00:54:24.725Z,94278.31
2022-11-15T00:55:21.375Z,94274.97
2022-11-15T00:56:17.837Z,94278.72
2022-11-15T00:57:14.333Z,94274.53
2022-11-15T00:58:10.815Z,94200.66
2022-11-15T00:59:07.285Z,94279.09
2022-11-15T01:00:03.979Z,94278.03
2022-11-15T01:01:08.110Z,94273.53
2022-11-15T01:02:04.746Z,94268.09
2022-11-15T01:03:01.590Z,94274.81
2022-11-15T01:04:01.234Z,94268.09
2022-11-15T01:04:58.174Z,94266.63
2022-11-15T01:05:54.661Z,94266.63
2022-11-15T01:06:51.220Z,94275.09
2022-11-15T01:07:47.820Z,94265.19
2022-11-15T01:08:44.309Z,94269.13
2022-11-15T01:09:40.783Z,94267.69
2022-11-15T01:10:37.887Z,94272.47
2022-11-15T01:11:34.705Z,94269.97
2022-11-15T01:12:31.225Z,94272.03
2022-11-15T01:13:30.370Z,94259.63
2022-11-15T01:14:27.066Z,94261.38
2022-11-15T01:15:23.545Z,94257.91
2022-11-15T01:16:20.021Z,94261.50
2022-11-15T01:17:16.577Z,94264.75
2022-11-15T01:18:13.035Z,94255.06
2022-11-15T01:19:09.540Z,94259.44
2022-11-15T01:20:06.258Z,94258.94
2022-11-15T01:21:06.902Z,94255.59
2022-11-15T01:22:03.398Z,94259.00
2022-11-15T01:22:59.942Z,94249.72
2022-11-15T01:23:57.480Z,94259.22
2022-11-15T01:24:53.999Z,94248.94
2022-11-15T01:25:50.430Z,94251.28
2022-11-15T01:26:46.951Z,94254.72
2022-11-15T01:27:43.415Z,94251.44
2022-11-15T01:28:40.731Z,94256.22
2022-11-15T01:29:37.415Z,94252.88
2022-11-15T01:30:33.981Z,94252.97
2022-11-15T01:31:30.453Z,94264.13
2022-11-15T01:32:26.897Z,94252.91
2022-11-15T01:33:23.325Z,94255.78
2022-11-15T01:34:19.789Z,94257.31
2022-11-15T01:35:16.377Z,94256.84
2022-11-15T01:36:17.054Z,94262.97
2022-11-15T01:37:13.515Z,94257.88
2022-11-15T01:38:10.004Z,94265.09
2022-11-15T01:39:06.447Z,94265.53
2022-11-15T01:40:03.076Z,94262.84
2022-11-15T01:40:59.672Z,94265.72
2022-11-15T01:41:56.178Z,94268.91
2022-11-15T01:42:52.672Z,94268.00
2022-11-15T01:43:53.506Z,94264.13
2022-11-15T01:44:54.168Z,94260.72
2022-11-15T01:45:53.814Z,94264.03
2022-11-15T01:46:50.350Z,94263.31
2022-11-15T01:47:48.870Z,94252.66
2022-11-15T01:48:45.406Z,94256.28
2022-11-15T01:49:46.737Z,94252.50
2022-11-15T01:50:43.213Z,94254.44
2022-11-15T01:51:40.443Z,94247.91
2022-11-15T01:52:38.396Z,94245.81
2022-11-15T01:53:36.303Z,94254.38
2022-11-15T01:54:32.855Z,94252.22
2022-11-15T01:55:29.428Z,94255.09
2022-11-15T01:56:28.858Z,94250.47
2022-11-15T01:57:25.399Z,94256.66
2022-11-15T01:58:21.931Z,94251.31
2022-11-15T01:59:19.232Z,94253.81
2022-11-15T02:00:16.164Z,94253.81
2022-11-15T02:01:13.470Z,94251.75
2022-11-15T02:02:10.057Z,94249.19
2022-11-15T02:03:06.652Z,94250.09
2022-11-15T02:04:14.811Z,94245.66
2022-11-15T02:05:11.310Z,94247.03
2022-11-15T02:06:07.912Z,94247.28
2022-11-15T02:07:05.821Z,94245.16
2022-11-15T02:08:02.338Z,94245.38
2022-11-15T02:08:59.839Z,94241.25
2022-11-15T02:09:56.560Z,94249.41
2022-11-15T02:10:53.033Z,94244.16
2022-11-15T02:11:50.960Z,94248.94
2022-11-15T02:12:47.918Z,94253.03
2022-11-15T02:13:44.869Z,94245.13
2022-11-15T02:14:42.606Z,94243.75
2022-11-15T02:15:43.742Z,94248.19
2022-11-15T02:16:49.417Z,94241.91
2022-11-15T02:17:59.193Z,94243.97
2022-11-15T02:19:04.606Z,94244.97
2022-11-15T02:20:04.172Z,94237.84
2022-11-15T02:21:24.064Z,94240.41
2022-11-15T02:22:46.925Z,94236.22
2022-11-15T02:24:02.083Z,94232.63
2022-11-15T02:25:07.719Z,94233.72
2022-11-15T02:26:04.155Z,94238.47
2022-11-15T02:27:00.601Z,94235.50
2022-11-15T02:27:57.026Z,94233.31
2022-11-15T02:29:14.331Z,94243.91
2022-11-15T02:30:29.857Z,94244.03
2022-11-15T02:31:44.935Z,94244.44
2022-11-15T02:32:56.795Z,94242.13
2022-11-15T02:34:25.550Z,94242.31
2022-11-15T02:35:22.000Z,94240.53
2022-11-15T02:36:38.708Z,94244.19
2022-11-15T02:37:57.604Z,94239.69
2022-11-15T02:39:06.398Z,94245.56
2022-11-15T02:40:09.085Z,94246.25
2022-11-15T02:41:07.960Z,94246.94
2022-11-15T02:42:33.892Z,94240.75
2022-11-15T02:43:56.905Z,94248.72
2022-11-15T02:44:54.236Z,94160.47
2022-11-15T02:45:52.838Z,94236.81
2022-11-15T02:47:10.754Z,94247.69
2022-11-15T02:48:08.335Z,94231.88
2022-11-15T02:49:05.382Z,94234.06
2022-11-15T02:50:13.195Z,94231.00
2022-11-15T02:51:10.205Z,94239.63
2022-11-15T02:52:06.666Z,94238.63
2022-11-15T02:53:03.910Z,94236.97
2022-11-15T02:54:00.337Z,94244.63
2022-11-15T02:54:57.826Z,94238.75
2022-11-15T02:55:54.849Z,94243.75
2022-11-15T02:56:54.097Z,94241.13
2022-11-15T02:57:56.616Z,94241.03
2022-11-15T02:58:55.892Z,94237.97
2022-11-15T02:59:52.374Z,94242.69
2022-11-15T03:00:59.790Z,94240.81
2022-11-15T03:02:12.534Z,94231.84
2022-11-15T03:03:18.020Z,94235.84
2022-11-15T03:04:14.484Z,94245.16
2022-11-15T03:05:10.887Z,94238.97
2022-11-15T03:06:13.227Z,94233.63
2022-11-15T03:07:33.014Z,94237.91
2022-11-15T03:08:29.513Z,94238.28
2022-11-15T03:09:53.361Z,94236.72
2022-11-15T03:11:08.500Z,94230.84
2022-11-15T03:12:23.778Z,94237.66
2022-11-15T03:13:29.679Z,94235.13
2022-11-15T03:14:37.724Z,94238.78
2022-11-15T03:15:38.187Z,94235.19
2022-11-15T03:16:39.677Z,94240.78
2022-11-15T03:17:59.965Z,94234.00
2022-11-15T03:19:00.408Z,94234.34
2022-11-15T03:19:58.456Z,94235.34
2022-11-15T03:20:55.869Z,94234.69
2022-11-15T03:21:53.719Z,94232.50
2022-11-15T03:22:51.516Z,94231.94
2022-11-15T03:23:49.639Z,94224.81
2022-11-15T03:24:48.351Z,94220.28
2022-11-15T03:25:47.478Z,94225.88
2022-11-15T03:26:45.724Z,94218.38
2022-11-15T03:27:45.082Z,94224.34
2022-11-15T03:28:51.600Z,94227.41
2022-11-15T03:29:51.425Z,94222.25
2022-11-15T03:30:49.681Z,94220.84
2022-11-15T03:31:50.700Z,94217.94
2022-11-15T03:32:50.066Z,94219.56
2022-11-15T03:33:46.580Z,94228.50
2022-11-15T03:34:46.106Z,94217.97
2022-11-15T03:35:45.457Z,94218.97
2022-11-15T03:36:42.124Z,94225.72
2022-11-15T03:37:38.638Z,94227.09
2022-11-15T03:38:36.061Z,94220.66
2022-11-15T03:39:32.689Z,94220.16
2022-11-15T03:40:32.299Z,94216.91
2022-11-15T03:41:40.871Z,94219.25
2022-11-15T03:42:43.132Z,94221.31
2022-11-15T03:43:51.868Z,94211.56
2022-11-15T03:45:06.855Z,94214.91
2022-11-15T03:46:07.124Z,94209.63
2022-11-15T03:47:15.531Z,94205.16
2022-11-15T03:48:14.639Z,94209.72
2022-11-15T03:49:17.916Z,94203.88
2022-11-15T03:50:19.366Z,94203.31
2022-11-15T03:51:16.265Z,94205.63
2022-11-15T03:52:13.211Z,94198.44
2022-11-15T03:53:09.806Z,94201.06
2022-11-15T03:54:06.377Z,94202.78
2022-11-15T03:55:04.564Z,94197.22
2022-11-15T03:56:00.978Z,94194.78
2022-11-15T03:56:57.587Z,94205.97
2022-11-15T03:57:55.805Z,94204.22
2022-11-15T03:58:52.278Z,94201.31
2022-11-15T03:59:48.878Z,94207.72
2022-11-15T04:00:45.361Z,94205.75
2022-11-15T04:01:41.936Z,94208.00
2022-11-15T04:02:38.437Z,94204.03
2022-11-15T04:03:35.064Z,94199.16
2022-11-15T04:04:31.694Z,94200.94
2022-11-15T04:05:28.395Z,94201.13
2022-11-15T04:06:24.869Z,94204.56
2022-11-15T04:07:21.395Z,94206.81
2022-11-15T04:08:17.980Z,94192.94
2022-11-15T04:09:14.526Z,94200.34
2022-11-15T04:10:11.659Z,94202.88
2022-11-15T04:11:08.191Z,94203.75
2022-11-15T04:12:04.724Z,94197.41
2022-11-15T04:13:03.317Z,94200.75
2022-11-15T04:13:59.853Z,94198.72
2022-11-15T04:15:08.231Z,94199.78
2022-11-15T04:16:04.888Z,94202.22
2022-11-15T04:17:01.354Z,94205.47
2022-11-15T04:17:58.208Z,94141.09
2022-11-15T04:19:13.544Z,94200.38
2022-11-15T04:20:30.691Z,94196.59
2022-11-15T04:21:45.481Z,94197.94
2022-11-15T04:23:00.581Z,94197.75
2022-11-15T04:24:15.079Z,94198.44
2022-11-15T04:25:11.558Z,94197.06
2022-11-15T04:26:11.083Z,94199.00
2022-11-15T04:27:07.552Z,94196.13
2022-11-15T04:28:04.085Z,94185.66
2022-11-15T04:29:19.186Z,94197.75
2022-11-15T04:30:15.865Z,94191.63
2022-11-15T04:31:12.335Z,94191.81
2022-11-15T04:32:08.878Z,94188.31
2022-11-15T04:33:05.472Z,94191.72
2022-11-15T04:34:01.986Z,94190.75
2022-11-15T04:34:58.411Z,94188.38
2022-11-15T04:36:13.351Z,94190.63
2022-11-15T04:37:12.700Z,94182.41
2022-11-15T04:38:09.937Z,94183.47
2022-11-15T04:39:06.547Z,94186.34
2022-11-15T04:40:03.041Z,94184.56
2022-11-15T04:40:59.559Z,94177.72
2022-11-15T04:41:56.023Z,94185.53
2022-11-15T04:42:52.523Z,94188.44
2022-11-15T04:43:49.051Z,94189.53
2022-11-15T04:44:45.500Z,94189.03
2022-11-15T04:45:41.997Z,94189.13
2022-11-15T04:46:38.516Z,94193.34
2022-11-15T04:47:34.988Z,94180.66
2022-11-15T04:48:31.439Z,94180.38
2022-11-15T04:49:27.860Z,94188.97
2022-11-15T04:50:24.314Z,94186.13
2022-11-15T04:51:21.249Z,94190.03
2022-11-15T04:52:17.731Z,94192.00
2022-11-15T04:53:14.367Z,94192.00
2022-11-15T04:54:10.910Z,94194.91
2022-11-15T04:55:08.384Z,94198.13
2022-11-15T04:56:05.131Z,94192.56
2022-11-15T04:57:01.627Z,94189.53
2022-11-15T04:57:59.583Z,94190.34
2022-11-15T04:58:56.075Z,94188.75
2022-11-15T04:59:52.618Z,94189.53
2022-11-15T05:00:49.167Z,94194.63
2022-11-15T05:01:45.711Z,94206.34
2022-11-15T05:03:00.713Z,94201.75
2022-11-15T05:04:15.762Z,94196.50
2022-11-15T05:05:12.224Z,94198.94
2022-11-15T05:06:08.691Z,94199.22
2022-11-15T05:07:05.360Z,94200.09
2022-11-15T05:08:01.827Z,94202.22
2022-11-15T05:08:58.315Z,94202.13
2022-11-15T05:09:54.760Z,94197.56
2022-11-15T05:10:51.440Z,94201.84
2022-11-15T05:11:48.122Z,94204.88
2022-11-15T05:12:44.634Z,94204.13
2022-11-15T05:13:41.088Z,94200.56
2022-11-15T05:14:37.573Z,94203.13
2022-11-15T05:15:34.076Z,94194.91
2022-11-15T05:16:30.586Z,94197.47
2022-11-15T05:17:27.147Z,94202.22
2022-11-15T05:18:24.016Z,94198.72
2022-11-15T05:19:20.607Z,94203.47
2022-11-15T05:20:17.043Z,94207.47
2022-11-15T05:21:15.021Z,94200.25
2022-11-15T05:22:11.474Z,94198.41
2022-11-15T05:23:08.020Z,94204.47
2022-11-15T05:24:04.646Z,94196.06
2022-11-15T05:25:01.111Z,94199.09
2022-11-15T05:26:06.441Z,94204.00
2022-11-15T05:27:05.509Z,94202.13
2022-11-15T05:28:02.087Z,94196.88
2022-11-15T05:28:59.518Z,94190.72
2022-11-15T05:29:55.961Z,94196.22
2022-11-15T05:30:52.443Z,94192.56
2022-11-15T05:31:49.077Z,94194.44
2022-11-15T05:32:45.946Z,94192.94
2022-11-15T05:33:43.532Z,94192.59
2022-11-15T05:34:40.426Z,94193.91
2022-11-15T05:35:40.610Z,94190.38
2022-11-15T05:36:41.279Z,94196.63
2022-11-15T05:37:37.847Z,94185.00
2022-11-15T05:38:34.554Z,94187.56
2022-11-15T05:39:31.048Z,94183.34
2022-11-15T05:40:28.485Z,94180.91
2022-11-15T05:41:39.999Z,94178.25
2022-11-15T05:42:36.646Z,94188.84
2022-11-15T05:43:36.012Z,94182.69
2022-11-15T05:44:33.294Z,94182.97
2022-11-15T05:45:29.940Z,94181.41
2022-11-15T05:46:26.772Z,94185.81
2022-11-15T05:47:25.465Z,94186.50
2022-11-15T05:48:22.002Z,94188.25
2022-11-15T05:49:20.606Z,94187.59
2022-11-15T05:50:18.899Z,94192.00
2022-11-15T05:51:16.515Z,94189.81
2022-11-15T05:52:14.799Z,94186.81
2022-11-15T05:53:12.810Z,94192.97
2022-11-15T05:54:09.283Z,94204.69
2022-11-15T05:55:06.755Z,94199.13
2022-11-15T05:56:03.996Z,94198.66
2022-11-15T05:57:01.121Z,94199.91
2022-11-15T05:57:57.596Z,94199.31
2022-11-15T05:58:59.441Z,94198.44
2022-11-15T05:59:56.621Z,94197.47
2022-11-15T06:00:53.157Z,94198.16
2022-11-15T06:01:49.871Z,94188.69
2022-11-15T06:02:46.349Z,94201.00
2022-11-15T06:03:42.838Z,94193.56
2022-11-15T06:04:39.563Z,94190.56
2022-11-15T06:05:36.022Z,94192.00
2022-11-15T06:06:32.551Z,94192.50
2022-11-15T06:07:30.068Z,94190.44
2022-11-15T06:08:26.596Z,94196.19
2022-11-15T06:09:23.160Z,94195.03
2022-11-15T06:10:19.627Z,94205.28
2022-11-15T06:11:16.209Z,94201.84
2022-11-15T06:12:12.732Z,94204.50
2022-11-15T06:13:09.293Z,94205.75
2022-11-15T06:14:05.906Z,94204.41
2022-11-15T06:15:02.418Z,94206.63
2022-11-15T06:15:58.994Z,94203.22
2022-11-15T06:16:55.463Z,94206.53
2022-11-15T06:17:52.085Z,94205.84
2022-11-15T06:18:48.521Z,94207.03
2022-11-15T06:19:44.985Z,94211.44
2022-11-15T06:20:41.471Z,94206.06
2022-11-15T06:21:38.022Z,94208.59
2022-11-15T06:22:34.478Z,94215.00
2022-11-15T06:23:34.659Z,94209.66
2022-11-15T06:24:31.155Z,94210.59
2022-11-15T06:25:28.274Z,94206.53
2022-11-15T06:26:24.729Z,94213.06
2022-11-15T06:27:21.179Z,94205.00
2022-11-15T06:28:17.681Z,94203.44
2022-11-15T06:29:14.155Z,94207.22
2022-11-15T06:30:10.913Z,94208.81
2022-11-15T06:31:08.552Z,94206.34
2022-11-15T06:32:05.215Z,94215.53
2022-11-15T06:33:03.138Z,94208.38
2022-11-15T06:33:59.616Z,94213.06
2022-11-15T06:34:56.050Z,94207.97
2022-11-15T06:35:52.520Z,94204.38
2022-11-15T06:36:48.960Z,94202.00
2022-11-15T06:37:45.362Z,94207.19
2022-11-15T06:38:41.832Z,94205.25
2022-11-15T06:39:38.342Z,94203.81
2022-11-15T06:40:36.211Z,94204.00
2022-11-15T06:41:35.265Z,94206.63
2022-11-15T06:42:31.851Z,94205.94
2022-11-15T06:43:28.405Z,94203.44
2022-11-15T06:44:24.927Z,94206.16
2022-11-15T06:45:21.400Z,94203.91
2022-11-15T06:46:17.887Z,94200.59
2022-11-15T06:47:14.330Z,94205.59
2022-11-15T06:48:10.772Z,94207.84
2022-11-15T06:49:09.806Z,94204.50
2022-11-15T06:50:06.697Z,94206.28
2022-11-15T06:51:04.345Z,94202.88
2022-11-15T06:52:00.807Z,94203.13
2022-11-15T06:53:01.240Z,94199.63
2022-11-15T06:53:57.722Z,94205.22
2022-11-15T06:54:54.184Z,94204.72
2022-11-15T06:55:55.035Z,94199.84
2022-11-15T06:56:51.996Z,94197.69
2022-11-15T06:57:51.937Z,94198.38
2022-11-15T06:58:48.434Z,94194.34
2022-11-15T06:59:45.008Z,94197.88
2022-11-15T07:00:42.024Z,94199.72
2022-11-15T07:01:38.641Z,94202.78
2022-11-15T07:02:35.157Z,94202.59
2022-11-15T07:03:32.399Z,94198.00
2022-11-15T07:04:29.230Z,94196.41
2022-11-15T07:05:25.738Z,94204.34
2022-11-15T07:06:22.441Z,94200.31
2022-11-15T07:07:18.997Z,94194.31
2022-11-15T07:08:15.462Z,94194.38
2022-11-15T07:09:11.946Z,94193.97
2022-11-15T07:10:08.867Z,94192.84
2022-11-15T07:11:06.679Z,94184.53
2022-11-15T07:12:07.510Z,94187.50
2022-11-15T07:13:04.438Z,94116.84
2022-11-15T07:14:01.320Z,94190.81
2022-11-15T07:14:57.786Z,94190.16
2022-11-15T07:15:54.359Z,94186.50
2022-11-15T07:16:50.843Z,94186.31
2022-11-15T07:17:47.352Z,94176.44
2022-11-15T07:18:43.908Z,94182.44
2022-11-15T07:19:40.371Z,94179.75
2022-11-15T07:20:36.857Z,94183.69
2022-11-15T07:21:33.620Z,94190.16
2022-11-15T07:22:30.066Z,94186.31
2022-11-15T07:23:26.511Z,94189.75
2022-11-15T07:24:22.956Z,94187.72
2022-11-15T07:25:19.590Z,94191.72
2022-11-15T07:26:16.282Z,94187.22
2022-11-15T07:27:12.791Z,94187.00
2022-11-15T07:28:09.553Z,94184.88
2022-11-15T07:29:06.157Z,94183.00
2022-11-15T07:30:02.590Z,94179.75
2022-11-15T07:30:59.112Z,94183.81
2022-11-15T07:31:55.789Z,94178.44
2022-11-15T07:32:58.752Z,94183.47
2022-11-15T07:33:55.211Z,94180.25
2022-11-15T07:34:51.707Z,94185.72
2022-11-15T07:35:51.236Z,94186.28
2022-11-15T07:36:47.759Z,94183.63
2022-11-15T07:37:44.202Z,94192.19
2022-11-15T07:38:43.059Z,94189.81
2022-11-15T07:39:39.754Z,94185.75
2022-11-15T07:40:36.260Z,94187.00
2022-11-15T07:41:32.774Z,94189.16
2022-11-15T07:42:51.036Z,94184.88
2022-11-15T07:43:47.468Z,94184.81
2022-11-15T07:44:44.034Z,94184.16
2022-11-15T07:45:44.047Z,94185.38
2022-11-15T07:46:40.613Z,94183.84
2022-11-15T07:47:37.108Z,94193.97
2022-11-15T07:48:43.532Z,94187.13
2022-11-15T07:49:41.178Z,94198.84
2022-11-15T07:50:37.779Z,94190.44
2022-11-15T07:51:34.291Z,94187.06
2022-11-15T07:52:30.903Z,94190.34
2022-11-15T07:53:27.410Z,94189.94
2022-11-15T07:54:23.856Z,94193.69
2022-11-15T07:55:20.366Z,94190.44
2022-11-15T07:56:16.981Z,94199.81
2022-11-15T07:57:13.485Z,94196.97
2022-11-15T07:58:11.151Z,94184.38
2022-11-15T07:59:07.616Z,94185.25
2022-11-15T08:00:04.835Z,94194.25
2022-11-15T08:01:08.757Z,94191.44
2022-11-15T08:02:05.448Z,94186.75
2022-11-15T08:03:02.793Z,94182.22
2022-11-15T08:03:59.292Z,94184.97
2022-11-15T08:04:55.902Z,94128.84
2022-11-15T08:05:53.217Z,94179.47
2022-11-15T08:06:49.697Z,94189.66
2022-11-15T08:07:46.274Z,94192.47
2022-11-15T08:08:42.790Z,94185.19
2022-11-15T08:09:39.317Z,94191.84
2022-11-15T08:10:40.390Z,94189.19
2022-11-15T08:11:37.348Z,94188.63
2022-11-15T08:12:33.810Z,94192.34
2022-11-15T08:13:30.613Z,94190.66
2022-11-15T08:14:27.365Z,94187.13
2022-11-15T08:15:23.805Z,94188.75
2022-11-15T08:16:20.378Z,94196.09
2022-11-15T08:17:16.943Z,94189.38
2022-11-15T08:18:15.622Z,94186.16
2022-11-15T08:19:12.035Z,94182.47
2022-11-15T08:20:08.808Z,94184.34
2022-11-15T08:21:05.419Z,94185.31
2022-11-15T08:22:01.916Z,94174.81
2022-11-15T08:22:59.032Z,94182.34
2022-11-15T08:23:55.510Z,94183.31
2022-11-15T08:24:51.942Z,94184.16
2022-11-15T08:25:48.503Z,94182.47
2022-11-15T08:26:45.238Z,94183.03
2022-11-15T08:27:41.783Z,94187.41
2022-11-15T08:28:38.464Z,94176.66
2022-11-15T08:29:34.948Z,94179.91
2022-11-15T08:30:32.229Z,94179.69
2022-11-15T08:31:28.742Z,94183.78
2022-11-15T08:32:25.215Z,94185.38
2022-11-15T08:33:21.736Z,94176.38
2022-11-15T08:34:18.153Z,94184.72
2022-11-15T08:35:15.034Z,94181.97
2022-11-15T08:36:14.141Z,94181.69
2022-11-15T08:37:10.631Z,94171.44
2022-11-15T08:38:07.172Z,94179.47
2022-11-15T08:39:03.693Z,94173.84
2022-11-15T08:40:00.350Z,94172.59
2022-11-15T08:41:01.830Z,94173.38
2022-11-15T08:41:58.484Z,94174.44
2022-11-15T08:42:55.089Z,94172.59
2022-11-15T08:43:51.586Z,94165.38
2022-11-15T08:44:49.949Z,94170.19
2022-11-15T08:45:47.007Z,94166.78
2022-11-15T08:46:43.481Z,94173.19
2022-11-15T08:47:39.957Z,94171.50
2022-11-15T08:48:36.410Z,94166.22
2022-11-15T08:49:32.910Z,94161.63
2022-11-15T08:50:29.606Z,94164.09
2022-11-15T08:51:26.065Z,94156.00
2022-11-15T08:52:22.529Z,94162.53
2022-11-15T08:53:18.951Z,94152.72
2022-11-15T08:54:15.437Z,94158.78
2022-11-15T08:55:11.958Z,94156.69
2022-11-15T08:56:10.130Z,94153.09
2022-11-15T08:57:06.991Z,94150.94
2022-11-15T08:58:03.584Z,94154.34
2022-11-15T08:59:00.035Z,94155.75
2022-11-15T08:59:56.620Z,94153.78
2022-11-15T09:00:53.062Z,94155.09
2022-11-15T09:01:49.668Z,94154.16
2022-11-15T09:02:46.185Z,94150.72
2022-11-15T09:03:42.658Z,94147.31
2022-11-15T09:04:40.516Z,94155.09
2022-11-15T09:05:37.797Z,94149.06
2022-11-15T09:06:34.420Z,94143.47
2022-11-15T09:07:31.757Z,94143.88
2022-11-15T09:08:48.257Z,94135.94
2022-11-15T09:09:45.223Z,94141.03
2022-11-15T09:10:41.706Z,94136.63
2022-11-15T09:11:38.622Z,94136.31
2022-11-15T09:12:35.187Z,94127.75
2022-11-15T09:13:31.670Z,94133.69
2022-11-15T09:14:28.139Z,94133.53
2022-11-15T09:15:24.751Z,94134.75
2022-11-15T09:16:21.277Z,94131.25
2022-11-15T09:17:21.777Z,94133.91
2022-11-15T09:18:23.412Z,94123.03
2022-11-15T09:19:20.066Z,94128.44
2022-11-15T09:20:16.856Z,94122.66
2022-11-15T09:21:13.552Z,94117.91
2022-11-15T09:22:10.008Z,94120.97
2022-11-15T09:23:06.893Z,94122.25
2022-11-15T09:24:05.282Z,94118.34
2022-11-15T09:25:01.722Z,94124.88
2022-11-15T09:26:02.235Z,94112.66
2022-11-15T09:26:58.679Z,94111.38
2022-11-15T09:27:55.207Z,94114.13
2022-11-15T09:30:05.861Z,94111.97
2022-11-15T09:31:03.834Z,94109.03
2022-11-15T09:32:00.296Z,94108.09
2022-11-15T09:32:56.727Z,94101.03
2022-11-15T09:33:53.302Z,94108.72
2022-11-15T09:34:50.332Z,94113.50
2022-11-15T09:35:46.767Z,94111.59
2022-11-15T09:36:43.219Z,94112.72
2022-11-15T09:37:39.769Z,94110.56
2022-11-15T09:38:36.758Z,94106.06
2022-11-15T09:39:33.265Z,94102.50
2022-11-15T09:40:31.029Z,94109.34
2022-11-15T09:41:27.472Z,94101.38
2022-11-15T09:42:31.095Z,94107.44
2022-11-15T09:43:31.292Z,94103.09
2022-11-15T09:44:40.041Z,94097.25
2022-11-15T09:45:55.286Z,94101.00
2022-11-15T09:46:51.878Z,94096.19
2022-11-15T09:48:06.884Z,94096.03
2022-11-15T09:49:03.726Z,94095.38
2022-11-15T09:50:02.141Z,94090.53
2022-11-15T09:51:01.338Z,94091.03
2022-11-15T09:51:58.353Z,94097.25
2022-11-15T09:52:56.051Z,94087.44
2022-11-15T09:55:11.081Z,94090.84
2022-11-15T09:56:15.343Z,94094.91
2022-11-15T09:57:16.324Z,94084.66
2022-11-15T09:58:30.760Z,94086.81
2022-11-15T09:59:40.670Z,94084.50
2022-11-15T10:00:48.582Z,94083.53
2022-11-15T10:01:51.280Z,94088.03
2022-11-15T10:02:53.656Z,94074.41
2022-11-15T10:03:50.143Z,94069.59
2022-11-15T10:04:46.672Z,94071.97
2022-11-15T10:05:44.762Z,94073.09
2022-11-15T10:06:46.045Z,94070.63
2022-11-15T10:08:03.552Z,94072.47
2022-11-15T10:09:05.670Z,94070.06
2022-11-15T10:10:05.502Z,94064.53
2022-11-15T10:11:36.070Z,94067.63
2022-11-15T10:12:25.235Z,94061.38
2022-11-15T10:13:26.452Z,94062.53
2022-11-15T10:14:25.363Z,94059.16
2022-11-15T10:15:25.109Z,94063.88
2022-11-15T10:16:29.628Z,94060.00
2022-11-15T10:17:42.483Z,94062.97
2022-11-15T10:18:41.962Z,94062.81
2022-11-15T10:19:47.600Z,94071.41
2022-11-15T10:20:51.835Z,94059.69
2022-11-15T10:22:06.444Z,94067.03
2022-11-15T10:23:06.685Z,94067.94
2022-11-15T10:24:07.381Z,94067.94
2022-11-15T10:25:09.795Z,94060.78
2022-11-15T10:26:09.448Z,94069.19
2022-11-15T10:27:13.456Z,94059.81
2022-11-15T10:28:12.582Z,94062.19
2022-11-15T10:29:09.028Z,94059.03
2022-11-15T10:30:11.186Z,94058.91
2022-11-15T10:31:22.281Z,94060.16
2022-11-15T10:32:19.893Z,94060.94
2022-11-15T10:33:31.430Z,94055.47
2022-11-15T10:34:28.528Z,94056.41
2022-11-15T10:35:29.507Z,94054.34
2022-11-15T10:36:26.682Z,94050.28
2022-11-15T10:37:30.604Z,94048.72
2022-11-15T10:38:27.039Z,94040.63
2022-11-15T10:40:38.524Z,94041.53
2022-11-15T10:41:39.637Z,94036.28
2022-11-15T10:42:36.110Z,94043.47
2022-11-15T10:43:32.676Z,94029.41
2022-11-15T10:44:33.259Z,94024.59
2022-11-15T10:45:31.722Z,94023.50
2022-11-15T10:47:44.608Z,94021.66
2022-11-15T10:48:41.492Z,94017.59
2022-11-15T10:49:44.604Z,94021.03
2022-11-15T10:50:47.992Z,94012.47
2022-11-15T10:51:53.148Z,94000.41
2022-11-15T10:52:49.710Z,94007.16
2022-11-15T10:53:47.261Z,94005.81
2022-11-15T10:54:46.915Z,94000.88
2022-11-15T10:55:47.305Z,94001.31
2022-11-15T10:56:43.760Z,94004.13
2022-11-15T10:57:40.636Z,93999.44
2022-11-15T10:58:42.468Z,94002.03
2022-11-15T10:59:39.565Z,93998.31
2022-11-15T11:00:42.728Z,93994.13
2022-11-15T11:01:47.007Z,93995.66
2022-11-15T11:02:57.253Z,93992.84
2022-11-15T11:04:02.492Z,93996.34
2022-11-15T11:04:59.490Z,93987.91
2022-11-15T11:06:25.212Z,93992.09
2022-11-15T11:07:23.393Z,93984.38
2022-11-15T11:08:24.647Z,93993.38
2022-11-15T11:09:33.311Z,93985.50
2022-11-15T11:10:50.584Z,93982.56
2022-11-15T11:11:48.335Z,93981.47
2022-11-15T11:12:44.868Z,93984.50
2022-11-15T11:13:41.443Z,93986.91
2022-11-15T11:14:38.664Z,93990.28
2022-11-15T11:15:35.311Z,93979.31
2022-11-15T11:16:48.228Z,93984.19
2022-11-15T11:17:59.679Z,93981.81
2022-11-15T11:19:02.417Z,93978.16
2022-11-15T11:20:05.591Z,93974.31
2022-11-15T11:21:10.358Z,93977.56
2022-11-15T11:22:13.256Z,93973.03
2022-11-15T11:23:23.306Z,93968.72
2022-11-15T11:24:28.775Z,93966.16
2022-11-15T11:25:31.236Z,93970.31
2022-11-15T11:26:30.779Z,93969.13
2022-11-15T11:27:30.240Z,93961.81
2022-11-15T11:28:31.630Z,93963.13
2022-11-15T11:29:46.780Z,93961.78
2022-11-15T11:31:02.132Z,93957.91
2022-11-15T11:32:07.836Z,93958.28
2022-11-15T11:33:22.625Z,93948.81
2022-11-15T11:34:37.610Z,93947.69
2022-11-15T11:35:49.213Z,93943.81
2022-11-15T11:36:45.668Z,93935.31
2022-11-15T11:37:53.611Z,93933.69
2022-11-15T11:38:59.221Z,93931.81
2022-11-15T11:40:06.112Z,93933.19
2022-11-15T11:41:08.510Z,93926.59